Time;durP1;ratioP1;P1;durP2;ratioP2;P2;SDS_P1;SDS_P2;PMS_P1;PMS_P2;Temp;Humidity;BMP_temperature;BMP_pressure;BME280_temperature;BME280_humidity;BME280_pressure;Samples;Min_cycle;Max_cycle;Signal;HPM_P1;HPM_P2
2022/11/13 00:03:24;;;;;;;;;;;;;;;5.77;100.00;102091.66;5590534;31;34897;-71
2022/11/13 00:06:48;;;;;;;;;;;;;;;5.72;100.00;102080.56;5576335;31;34234;-71
2022/11/13 00:10:18;;;;;;;;;;;;;;;5.66;100.00;102087.09;5576831;31;34159;-71
2022/11/13 00:13:43;;;;;;;;;;;;;;;5.66;100.00;102084.44;5589377;31;34287;-72
2022/11/13 00:17:07;;;;;;;;;;;;;;;5.62;100.00;102082.91;5590395;31;34478;-71
2022/11/13 00:20:32;;;;;;;;;;;;;;;5.59;100.00;102076.06;5590539;31;34237;-71
2022/11/13 00:23:56;;;;;;;;;;;;;;;5.64;100.00;102086.31;5590386;31;34264;-71
2022/11/13 00:27:22;;;;;;;;;;;;;;;5.76;100.00;102082.91;5590399;31;34268;-71
2022/11/13 00:30:48;;;;;;;;;;;;;;;5.64;100.00;102084.53;5590418;31;34939;-71
2022/11/13 00:34:14;;;;;;;;;;;;;;;5.78;100.00;102083.66;5590367;31;34898;-71
2022/11/13 00:37:57;;;;;;;;;;;;;;;5.67;100.00;102086.12;5580954;31;34333;-72
2022/11/13 00:41:23;;;;;;;;;;;;;;;5.65;100.00;102088.88;5578892;31;34898;-71
2022/11/13 00:44:48;;;;;;;;;;;;;;;5.78;100.00;102086.31;5565418;31;35615;-72
2022/11/13 00:48:14;;;;;;;;;;;;;;;5.97;100.00;102081.59;5578584;31;34487;-72
2022/11/13 00:51:38;;;;;;;;;;;;;;;5.95;100.00;102082.66;5575839;31;35076;-71
2022/11/13 00:55:04;;;;;;;;;;;;;;;6.08;100.00;102083.56;5575697;31;34706;-71
2022/11/13 00:58:28;;;;;;;;;;;;;;;6.03;100.00;102077.75;5578748;31;34658;-71
2022/11/13 01:01:55;;;;;;;;;;;;;;;6.04;100.00;102080.28;5590006;31;34869;-71
2022/11/13 01:05:19;;;;;;;;;;;;;;;6.14;100.00;102077.91;5578534;31;34188;-71
2022/11/13 01:08:45;;;;;;;;;;;;;;;6.06;100.00;102075.75;5589981;31;34899;-71
2022/11/13 01:12:09;;;;;;;;;;;;;;;6.20;100.00;102081.94;5589857;31;34729;-71
2022/11/13 01:15:32;;;;;;;;;;;;;;;6.12;100.00;102075.38;5590033;31;34926;-71
2022/11/13 01:18:56;;;;;;;;;;;;;;;6.21;100.00;102079.19;5576292;31;35270;-71
2022/11/13 01:22:22;;;;;;;;;;;;;;;6.22;100.00;102074.78;5589860;31;34856;-71
2022/11/13 01:25:44;;;;;;;;;;;;;;;6.18;100.00;102081.19;5577992;31;34474;-72
2022/11/13 01:29:09;;;;;;;;;;;;;;;6.17;100.00;102071.59;5589818;31;34701;-71
2022/11/13 01:32:35;;;;;;;;;;;;;;;6.23;100.00;102065.94;5589817;31;34249;-72
2022/11/13 01:36:01;;;;;;;;;;;;;;;6.30;100.00;102064.59;5589754;31;34884;-71
2022/11/13 01:39:25;;;;;;;;;;;;;;;6.30;100.00;102061.94;5589728;31;34211;-72
2022/11/13 01:42:50;;;;;;;;;;;;;;;6.27;100.00;102046.34;5589630;31;34759;-71
2022/11/13 01:46:34;;;;;;;;;;;;;;;6.25;100.00;102050.84;5578244;31;34373;-71
2022/11/13 01:50:01;;;;;;;;;;;;;;;6.26;100.00;102049.91;5589541;31;34902;-71
2022/11/13 01:53:25;;;;;;;;;;;;;;;6.16;100.00;102049.66;5589493;31;34765;-71
2022/11/13 01:56:49;;;;;;;;;;;;;;;6.18;100.00;102039.87;5589779;31;34278;-71
2022/11/13 02:00:15;;;;;;;;;;;;;;;6.16;100.00;102043.53;5589371;31;34553;-71
2022/11/13 02:03:40;;;;;;;;;;;;;;;6.26;100.00;102039.38;5589329;31;34949;-71
2022/11/13 02:07:13;;;;;;;;;;;;;;;6.23;100.00;102034.31;5577845;31;34345;-71
2022/11/13 02:10:37;;;;;;;;;;;;;;;6.17;100.00;102027.66;5589126;31;34532;-71
2022/11/13 02:14:04;;;;;;;;;;;;;;;6.05;100.00;102033.72;5588897;31;34303;-71
2022/11/13 02:17:39;;;;;;;;;;;;;;;6.07;100.00;102031.81;5588895;31;34578;-71
2022/11/13 02:21:22;;;;;;;;;;;;;;;6.02;100.00;102029.47;5588958;31;35023;-71
2022/11/13 02:24:47;;;;;;;;;;;;;;;5.91;100.00;102024.03;5588941;31;34616;-71
2022/11/13 02:28:16;;;;;;;;;;;;;;;5.88;100.00;102031.31;5577969;31;34132;-71
2022/11/13 02:31:39;;;;;;;;;;;;;;;5.91;100.00;102021.41;5574784;31;33766;-71
2022/11/13 02:35:05;;;;;;;;;;;;;;;5.85;100.00;102020.94;5588754;31;34860;-71
2022/11/13 02:38:29;;;;;;;;;;;;;;;5.81;100.00;102028.16;5591531;31;34335;-71
2022/11/13 02:41:53;;;;;;;;;;;;;;;5.87;100.00;102025.19;5591205;31;34633;-71
2022/11/13 02:45:16;;;;;;;;;;;;;;;5.92;100.00;102023.09;5579795;31;34578;-71
2022/11/13 02:48:40;;;;;;;;;;;;;;;5.83;100.00;102018.38;5579772;31;34913;-71
2022/11/13 02:52:06;;;;;;;;;;;;;;;5.74;100.00;102020.75;5577229;31;34165;-71
2022/11/13 02:55:31;;;;;;;;;;;;;;;5.73;100.00;102011.16;5591110;31;34359;-71
2022/11/13 02:58:56;;;;;;;;;;;;;;;5.77;100.00;102007.38;5591170;31;34932;-71
2022/11/13 03:02:23;;;;;;;;;;;;;;;5.89;100.00;102018.03;5591336;31;34204;-71
2022/11/13 03:05:50;;;;;;;;;;;;;;;5.81;100.00;102024.72;5591118;31;34594;-71
2022/11/13 03:09:14;;;;;;;;;;;;;;;5.83;100.00;102018.38;5579283;31;34346;-71
2022/11/13 03:12:40;;;;;;;;;;;;;;;5.85;100.00;102013.03;5590839;31;34714;-71
2022/11/13 03:16:05;;;;;;;;;;;;;;;5.78;100.00;102014.34;5579587;31;33809;-71
2022/11/13 03:19:29;;;;;;;;;;;;;;;5.77;100.00;102002.13;5590946;31;34655;-71
2022/11/13 03:22:54;;;;;;;;;;;;;;;5.75;100.00;102007.50;5590835;31;34353;-71
2022/11/13 03:26:16;;;;;;;;;;;;;;;5.64;100.00;102013.44;5590918;31;34293;-71
2022/11/13 03:29:42;;;;;;;;;;;;;;;5.72;100.00;102018.22;5590889;31;34302;-71
2022/11/13 03:33:07;;;;;;;;;;;;;;;5.69;100.00;102019.28;5590907;31;34659;-71
2022/11/13 03:36:30;;;;;;;;;;;;;;;5.46;100.00;102021.66;5590810;31;34936;-71
2022/11/13 03:39:55;;;;;;;;;;;;;;;5.44;100.00;102023.50;5590809;31;34326;-71
2022/11/13 03:43:19;;;;;;;;;;;;;;;5.37;100.00;102017.81;5579234;31;34799;-71
2022/11/13 03:46:43;;;;;;;;;;;;;;;5.39;100.00;102009.78;5590872;31;35026;-71
2022/11/13 03:50:06;;;;;;;;;;;;;;;5.28;100.00;102013.06;5590769;31;34407;-71
2022/11/13 03:53:29;;;;;;;;;;;;;;;5.36;100.00;102013.47;5590806;31;34335;-71
2022/11/13 03:56:52;;;;;;;;;;;;;;;5.22;100.00;102016.97;5590688;31;34224;-71
2022/11/13 04:00:17;;;;;;;;;;;;;;;5.22;100.00;102022.22;5576853;31;34274;-71
2022/11/13 04:03:43;;;;;;;;;;;;;;;5.25;100.00;102014.13;5590635;31;34905;-71
2022/11/13 04:07:07;;;;;;;;;;;;;;;5.27;100.00;102011.41;5590477;31;34898;-71
2022/11/13 04:10:32;;;;;;;;;;;;;;;5.17;100.00;102007.66;5565856;31;32809;-71
2022/11/13 04:13:57;;;;;;;;;;;;;;;5.21;100.00;102023.16;5590312;31;34200;-71
2022/11/13 04:17:21;;;;;;;;;;;;;;;5.16;100.00;102022.59;5579321;31;34458;-71
2022/11/13 04:20:45;;;;;;;;;;;;;;;5.22;100.00;102009.06;5590393;31;34360;-71
2022/11/13 04:24:08;;;;;;;;;;;;;;;5.16;100.00;102019.94;5590473;31;34872;-70
2022/11/13 04:27:35;;;;;;;;;;;;;;;5.14;100.00;102015.69;5590626;31;34658;-71
2022/11/13 04:31:02;;;;;;;;;;;;;;;5.14;100.00;102018.34;5590491;31;34105;-71
2022/11/13 04:34:27;;;;;;;;;;;;;;;5.14;100.00;102019.19;5590342;31;34400;-71
2022/11/13 04:37:53;;;;;;;;;;;;;;;5.14;100.00;102020.97;5565756;31;32729;-71
2022/11/13 04:44:59;;;;;;;;;;;;;;;5.19;100.00;102013.66;5590254;31;34335;-71
2022/11/13 04:48:24;;;;;;;;;;;;;;;5.02;100.00;102013.84;5590226;31;34768;-71
2022/11/13 04:51:49;;;;;;;;;;;;;;;4.97;100.00;102006.22;5590100;31;34585;-71
2022/11/13 04:55:15;;;;;;;;;;;;;;;5.08;100.00;102006.41;5579025;31;34259;-71
2022/11/13 04:58:41;;;;;;;;;;;;;;;5.00;100.00;102010.44;5589294;31;34368;-71
2022/11/13 05:02:07;;;;;;;;;;;;;;;5.10;100.00;102017.69;5590193;31;34918;-71
2022/11/13 05:05:31;;;;;;;;;;;;;;;5.16;100.00;102017.31;5576093;31;34441;-71
2022/11/13 05:08:57;;;;;;;;;;;;;;;5.12;100.00;102007.94;5590001;31;34390;-71
2022/11/13 05:12:21;;;;;;;;;;;;;;;5.16;100.00;102019.09;5589793;31;34894;-71
2022/11/13 05:15:49;;;;;;;;;;;;;;;5.09;100.00;102021.25;5589956;31;34999;-71
2022/11/13 05:19:15;;;;;;;;;;;;;;;5.22;100.00;102024.84;5578849;31;34282;-71
2022/11/13 05:22:39;;;;;;;;;;;;;;;5.11;100.00;102011.50;5589845;31;34206;-71
2022/11/13 05:26:06;;;;;;;;;;;;;;;5.07;100.00;102024.91;5589813;31;35158;-71
2022/11/13 05:29:31;;;;;;;;;;;;;;;5.16;100.00;102022.59;5578453;31;34288;-71
2022/11/13 05:32:55;;;;;;;;;;;;;;;5.11;100.00;102016.75;5589841;31;34221;-72
2022/11/13 05:36:21;;;;;;;;;;;;;;;5.09;100.00;102012.50;5589863;31;34604;-71
2022/11/13 05:39:46;;;;;;;;;;;;;;;5.18;100.00;102011.97;5589704;31;34900;-72
2022/11/13 05:43:10;;;;;;;;;;;;;;;5.09;100.00;102009.87;5589777;31;34887;-72
2022/11/13 05:46:34;;;;;;;;;;;;;;;4.97;100.00;102014.09;5589640;31;34790;-72
2022/11/13 05:49:58;;;;;;;;;;;;;;;4.97;100.00;102011.47;5589652;31;34881;-72
2022/11/13 05:53:22;;;;;;;;;;;;;;;5.03;100.00;101997.97;5589420;31;34264;-72
2022/11/13 05:56:45;;;;;;;;;;;;;;;5.05;100.00;102011.84;5589516;31;34628;-72
2022/11/13 06:00:09;;;;;;;;;;;;;;;5.03;100.00;102008.50;5589317;31;35112;-72
2022/11/13 06:03:36;;;;;;;;;;;;;;;5.08;100.00;102005.59;5589261;31;34265;-72
2022/11/13 06:06:59;;;;;;;;;;;;;;;5.10;100.00;102001.06;5589243;31;34285;-72
2022/11/13 06:10:23;;;;;;;;;;;;;;;5.16;100.00;102000.69;5576386;31;34984;-72
2022/11/13 06:13:47;;;;;;;;;;;;;;;5.16;100.00;102009.44;5591411;31;34807;-72
2022/11/13 06:17:11;;;;;;;;;;;;;;;5.11;100.00;102006.22;5591540;31;34855;-72
2022/11/13 06:20:35;;;;;;;;;;;;;;;4.98;100.00;102001.81;5591506;31;34905;-72
2022/11/13 06:23:58;;;;;;;;;;;;;;;5.13;100.00;102006.97;5566728;31;35124;-72
2022/11/13 06:27:23;;;;;;;;;;;;;;;5.11;100.00;102011.50;5576955;31;34381;-72
2022/11/13 06:30:49;;;;;;;;;;;;;;;5.19;100.00;102011.00;5591562;31;34702;-72
2022/11/13 06:34:15;;;;;;;;;;;;;;;5.28;100.00;102004.38;5591340;31;34379;-72
2022/11/13 06:37:40;;;;;;;;;;;;;;;5.15;100.00;102007.72;5577785;31;35061;-72
2022/11/13 06:41:05;;;;;;;;;;;;;;;5.11;100.00;102011.50;5591391;31;34287;-72
2022/11/13 06:44:31;;;;;;;;;;;;;;;5.24;100.00;102006.31;5591443;31;34027;-72
2022/11/13 06:47:54;;;;;;;;;;;;;;;5.41;100.00;102014.03;5591201;31;34337;-72
2022/11/13 06:51:18;;;;;;;;;;;;;;;5.35;100.00;102013.56;5579462;31;34931;-72
2022/11/13 06:54:43;;;;;;;;;;;;;;;5.28;100.00;102014.91;5577438;31;34336;-72
2022/11/13 06:58:06;;;;;;;;;;;;;;;5.23;100.00;102021.25;5591206;31;34154;-72
2022/11/13 07:01:30;;;;;;;;;;;;;;;5.42;100.00;102023.59;5577215;31;33007;-72
2022/11/13 07:04:56;;;;;;;;;;;;;;;5.47;100.00;102025.97;5591078;31;34348;-72
2022/11/13 07:08:20;;;;;;;;;;;;;;;5.48;100.00;102027.66;5591112;31;34693;-72
2022/11/13 07:11:45;;;;;;;;;;;;;;;5.59;100.00;102020.78;5590821;31;34337;-72
2022/11/13 07:15:10;;;;;;;;;;;;;;;5.58;100.00;102032.25;5579413;31;34295;-72
2022/11/13 07:18:35;;;;;;;;;;;;;;;5.65;100.00;102030.09;5590822;31;34627;-72
2022/11/13 07:22:00;;;;;;;;;;;;;;;5.66;100.00;102029.16;5589756;31;34832;-72
2022/11/13 07:25:24;;;;;;;;;;;;;;;5.66;100.00;102034.41;5576756;31;34426;-72
2022/11/13 07:28:47;;;;;;;;;;;;;;;5.72;100.00;102028.75;5576731;31;34626;-72
2022/11/13 07:32:12;;;;;;;;;;;;;;;5.64;100.00;102039.78;5576631;31;34834;-72
2022/11/13 07:35:36;;;;;;;;;;;;;;;5.64;100.00;102031.03;5590633;31;34257;-71
2022/11/13 07:39:01;;;;;;;;;;;;;;;5.54;100.00;102020.22;5590657;31;34232;-71
2022/11/13 07:42:25;;;;;;;;;;;;;;;5.61;100.00;102021.56;5565906;31;34544;-71
2022/11/13 07:45:53;;;;;;;;;;;;;;;5.59;100.00;102033.09;5579245;31;34823;-71
2022/11/13 07:49:17;;;;;;;;;;;;;;;5.60;100.00;102053.22;5576400;31;34999;-71
2022/11/13 07:52:41;;;;;;;;;;;;;;;5.80;100.00;102038.81;5590575;31;34999;-72
2022/11/13 07:56:05;;;;;;;;;;;;;;;5.92;100.00;102045.97;5590444;31;34949;-72
2022/11/13 07:59:28;;;;;;;;;;;;;;;5.85;100.00;102032.31;5590510;31;34893;-72
2022/11/13 08:02:53;;;;;;;;;;;;;;;5.99;100.00;102029.69;5590464;31;34445;-72
2022/11/13 08:06:18;;;;;;;;;;;;;;;5.93;100.00;102042.38;5590286;31;34542;-71
2022/11/13 08:09:43;;;;;;;;;;;;;;;5.82;100.00;102037.75;5576664;31;34518;-71
2022/11/13 08:13:08;;;;;;;;;;;;;;;6.12;100.00;102042.91;5590293;31;34387;-71
2022/11/13 08:16:32;;;;;;;;;;;;;;;6.12;100.00;102038.47;5590100;31;34655;-72
2022/11/13 08:19:56;;;;;;;;;;;;;;;6.06;100.00;102038.03;5590320;31;34213;-71
2022/11/13 08:23:21;;;;;;;;;;;;;;;6.16;100.00;102035.62;5579120;31;34245;-71
2022/11/13 08:26:44;;;;;;;;;;;;;;;6.18;100.00;102039.87;5576486;31;35784;-71
2022/11/13 08:30:08;;;;;;;;;;;;;;;6.16;100.00;102030.37;5578430;31;34737;-71
2022/11/13 08:33:33;;;;;;;;;;;;;;;6.11;100.00;102028.03;5575358;31;34829;-71
2022/11/13 08:36:56;;;;;;;;;;;;;;;6.37;100.00;102029.00;5590033;31;34940;-71
2022/11/13 08:40:19;;;;;;;;;;;;;;;6.37;100.00;102035.09;5578455;31;34317;-71
2022/11/13 08:43:44;;;;;;;;;;;;;;;6.02;100.00;102034.75;5589949;31;34737;-71
2022/11/13 08:47:08;;;;;;;;;;;;;;;5.84;100.00;102033.25;5578237;31;34912;-71
2022/11/13 08:50:32;;;;;;;;;;;;;;;6.30;100.00;102023.25;5575795;31;34427;-71
2022/11/13 08:53:56;;;;;;;;;;;;;;;6.38;100.00;102028.03;5589940;31;34947;-70
2022/11/13 08:57:19;;;;;;;;;;;;;;;6.63;100.00;102032.53;5575585;31;34474;-71
2022/11/13 09:00:45;;;;;;;;;;;;;;;6.94;100.00;102032.16;5578440;31;34216;-71
2022/11/13 09:04:12;;;;;;;;;;;;;;;7.02;100.00;102031.66;5576107;31;34774;-71
2022/11/13 09:07:36;;;;;;;;;;;;;;;6.98;100.00;102028.34;5575644;31;34470;-71
2022/11/13 09:11:04;;;;;;;;;;;;;;;6.96;100.00;102031.13;5589691;31;34210;-71
2022/11/13 09:14:27;;;;;;;;;;;;;;;6.80;100.00;102033.09;5589405;31;34263;-71
2022/11/13 09:17:55;;;;;;;;;;;;;;;6.61;100.00;102024.72;5575885;31;36224;-71
2022/11/13 09:21:20;;;;;;;;;;;;;;;6.89;100.00;102027.19;5578471;31;34157;-71
2022/11/13 09:24:44;;;;;;;;;;;;;;;6.85;100.00;102033.63;5589393;31;35025;-71
2022/11/13 09:28:09;;;;;;;;;;;;;;;6.96;100.00;102031.13;5576009;31;34303;-71
2022/11/13 09:31:37;;;;;;;;;;;;;;;7.25;100.00;102033.56;5589527;31;34870;-71
2022/11/13 09:35:00;;;;;;;;;;;;;;;7.08;100.00;102026.78;5589334;31;34277;-71
2022/11/13 09:38:23;;;;;;;;;;;;;;;7.14;100.00;102018.47;5589387;31;34197;-71
2022/11/13 09:42:12;;;;;;;;;;;;;;;7.01;100.00;102012.34;5589234;31;34839;-71
2022/11/13 09:45:40;;;;;;;;;;;;;;;6.98;100.00;102010.75;5574934;31;34321;-71
2022/11/13 09:49:12;;;;;;;;;;;;;;;7.57;100.00;102004.88;5575195;31;34878;-71
2022/11/13 09:52:36;;;;;;;;;;;;;;;8.05;100.00;102005.78;5575259;31;35015;-71
2022/11/13 09:56:15;;;;;;;;;;;;;;;8.20;100.00;102004.69;5575406;31;35257;-71
2022/11/13 09:59:51;;;;;;;;;;;;;;;8.21;100.00;102001.09;5575427;31;35532;-71
2022/11/13 10:03:29;;;;;;;;;;;;;;;8.25;100.00;102006.03;5575141;31;33060;-71
2022/11/13 10:07:26;;;;;;;;;;;;;;;7.81;100.00;101997.84;5589001;31;34809;-71
2022/11/13 10:10:57;;;;;;;;;;;;;;;8.17;100.00;101975.84;5589235;31;34831;-72
2022/11/13 10:14:22;;;;;;;;;;;;;;;8.48;100.00;101974.41;5549977;32;34539;-71
2022/11/13 10:17:45;;;;;;;;;;;;;;;8.96;100.00;101973.31;5549645;32;34330;-72
2022/11/13 10:21:14;;;;;;;;;;;;;;;8.94;100.00;101964.66;5549699;32;34260;-72
2022/11/13 10:24:40;;;;;;;;;;;;;;;9.06;100.00;101965.50;5548960;32;34594;-71
2022/11/13 10:28:23;;;;;;;;;;;;;;;9.14;100.00;101956.03;5549494;32;35069;-71
2022/11/13 10:32:15;;;;;;;;;;;;;;;8.86;100.00;101951.16;5549169;32;34561;-71
2022/11/13 10:35:41;;;;;;;;;;;;;;;8.78;100.00;101956.22;5549133;32;34460;-71
2022/11/13 10:39:06;;;;;;;;;;;;;;;9.27;100.00;101937.34;5548732;32;32926;-72
2022/11/13 10:42:36;;;;;;;;;;;;;;;9.08;100.00;101934.47;5549248;32;34811;-72
2022/11/13 10:46:01;;;;;;;;;;;;;;;9.04;100.00;101927.75;5548233;32;34750;-72
2022/11/13 10:49:27;;;;;;;;;;;;;;;8.80;100.00;101924.34;5549046;32;34193;-71
2022/11/13 10:52:53;;;;;;;;;;;;;;;8.10;100.00;101922.56;5547929;32;35110;-70
2022/11/13 10:56:21;;;;;;;;;;;;;;;8.18;100.00;101925.47;5549590;32;34965;-72
2022/11/13 10:59:46;;;;;;;;;;;;;;;7.97;100.00;101913.88;5551040;32;35043;-71
2022/11/13 11:03:13;;;;;;;;;;;;;;;8.04;100.00;101908.97;5552090;32;34989;-72
2022/11/13 11:06:38;;;;;;;;;;;;;;;8.27;100.00;101906.31;5550876;32;34998;-73
2022/11/13 11:10:23;;;;;;;;;;;;;;;8.53;100.00;101909.62;5550753;32;34668;-72
2022/11/13 11:13:47;;;;;;;;;;;;;;;8.46;100.00;101910.22;5567078;32;34651;-72
2022/11/13 11:17:13;;;;;;;;;;;;;;;9.06;100.00;101901.97;5570834;32;34259;-71
2022/11/13 11:20:39;;;;;;;;;;;;;;;9.80;100.00;101889.78;5570850;32;34851;-72
2022/11/13 11:24:21;;;;;;;;;;;;;;;10.43;100.00;101900.38;5570269;32;34911;-71
2022/11/13 11:27:51;;;;;;;;;;;;;;;10.50;100.00;101894.56;5570800;32;34818;-72
2022/11/13 11:31:40;;;;;;;;;;;;;;;10.39;100.00;101887.50;5570379;32;34494;-71
2022/11/13 11:35:09;;;;;;;;;;;;;;;10.53;100.00;101881.84;5570695;32;34219;-71
2022/11/13 11:38:48;;;;;;;;;;;;;;;10.50;100.00;101882.13;5570577;32;34698;-71
2022/11/13 11:42:19;;;;;;;;;;;;;;;10.86;100.00;101880.75;5571067;32;34911;-71
2022/11/13 11:45:43;;;;;;;;;;;;;;;10.93;100.00;101871.31;5570719;32;35093;-71
2022/11/13 11:49:07;;;;;;;;;;;;;;;11.60;100.00;101867.97;5570326;32;34739;-72
2022/11/13 11:52:38;;;;;;;;;;;;;;;12.13;100.00;101866.63;5570686;32;34152;-72
2022/11/13 11:56:00;;;;;;;;;;;;;;;11.69;100.00;101859.16;5570665;32;34938;-71
2022/11/13 11:59:43;;;;;;;;;;;;;;;11.51;100.00;101856.38;5570307;32;32686;-71
2022/11/13 12:03:09;;;;;;;;;;;;;;;11.13;100.00;101843.84;5570633;32;34178;-71
2022/11/13 12:06:47;;;;;;;;;;;;;;;10.80;100.00;101846.78;5570000;32;34736;-71
2022/11/13 12:10:12;;;;;;;;;;;;;;;10.33;100.00;101854.37;5569791;32;34000;-71
2022/11/13 12:13:39;;;;;;;;;;;;;;;10.49;100.00;101848.59;5569662;32;34333;-71
2022/11/13 12:17:16;;;;;;;;;;;;;;;10.20;100.00;101837.81;5569897;32;33907;-71
2022/11/13 12:20:46;;;;;;;;;;;;;;;10.25;100.00;101835.62;5569797;32;34621;-71
2022/11/13 12:24:22;;;;;;;;;;;;;;;9.94;100.00;101820.56;5569982;32;32758;-71
2022/11/13 12:28:04;;;;;;;;;;;;;;;9.52;100.00;101819.69;5570618;32;34394;-72
2022/11/13 12:31:47;;;;;;;;;;;;;;;9.48;100.00;101813.78;5569834;32;35291;-72
2022/11/13 12:35:13;;;;;;;;;;;;;;;9.60;100.00;101809.28;5570544;32;34338;-72
2022/11/13 12:38:38;;;;;;;;;;;;;;;9.69;100.00;101803.22;5570439;32;34853;-72
2022/11/13 12:42:11;;;;;;;;;;;;;;;9.58;100.00;101800.63;5570353;32;34506;-72
2022/11/13 12:45:35;;;;;;;;;;;;;;;9.62;100.00;101788.81;5570382;32;34256;-72
2022/11/13 12:48:59;;;;;;;;;;;;;;;9.68;100.00;101787.47;5569949;32;35232;-71
2022/11/13 12:52:23;;;;;;;;;;;;;;;9.62;100.00;101772.06;5569629;32;34955;-72
2022/11/13 12:55:55;;;;;;;;;;;;;;;9.81;100.00;101778.34;5570445;32;34796;-72
2022/11/13 12:59:19;;;;;;;;;;;;;;;9.86;100.00;101773.50;5570442;32;34349;-72
2022/11/13 13:03:16;;;;;;;;;;;;;;;10.07;100.00;101764.72;5569577;32;35120;-72
2022/11/13 13:06:40;;;;;;;;;;;;;;;10.25;100.00;101758.69;5550853;32;34459;-70
2022/11/13 13:10:16;;;;;;;;;;;;;;;10.02;100.00;101749.19;5569459;32;34022;-71
2022/11/13 13:13:55;;;;;;;;;;;;;;;10.24;100.00;101756.19;5585610;31;34876;-71
2022/11/13 13:17:21;;;;;;;;;;;;;;;10.14;100.00;101749.94;5590042;31;34268;-70
2022/11/13 13:21:05;;;;;;;;;;;;;;;10.31;100.00;101752.03;5588951;31;34435;-70
2022/11/13 13:24:28;;;;;;;;;;;;;;;10.27;100.00;101761.19;5589368;31;34400;-71
2022/11/13 13:27:56;;;;;;;;;;;;;;;10.09;100.00;101750.34;5575777;31;32843;-71
2022/11/13 13:31:39;;;;;;;;;;;;;;;10.03;100.00;101742.91;5577859;31;34530;-71
2022/11/13 13:35:04;;;;;;;;;;;;;;;9.85;100.00;101747.12;5589429;31;34816;-71
2022/11/13 13:38:31;;;;;;;;;;;;;;;9.82;100.00;101744.75;5575762;31;34391;-71
2022/11/13 13:42:20;;;;;;;;;;;;;;;9.76;100.00;101746.09;5575175;31;35300;-70
2022/11/13 13:46:02;;;;;;;;;;;;;;;9.65;100.00;101748.78;5566998;31;34501;-70
2022/11/13 13:49:27;;;;;;;;;;;;;;;9.50;100.00;101745.63;5575709;31;34265;-70
2022/11/13 13:52:54;;;;;;;;;;;;;;;9.49;100.00;101751.87;5589269;31;34092;-70
2022/11/13 13:56:19;;;;;;;;;;;;;;;9.57;100.00;101745.97;5589049;31;34373;-71
2022/11/13 13:59:44;;;;;;;;;;;;;;;9.54;100.00;101739.09;5588803;31;34394;-71
2022/11/13 14:03:18;;;;;;;;;;;;;;;9.39;100.00;101739.56;5575658;31;34838;-71
2022/11/13 14:06:47;;;;;;;;;;;;;;;9.30;100.00;101729.69;5589036;31;35158;-71
2022/11/13 14:10:20;;;;;;;;;;;;;;;9.26;100.00;101721.16;5588929;31;34312;-71
2022/11/13 14:13:45;;;;;;;;;;;;;;;9.15;100.00;101726.50;5568413;32;36370;-71
2022/11/13 14:17:09;;;;;;;;;;;;;;;9.13;100.00;101726.62;5568904;32;35074;-71
2022/11/13 14:20:48;;;;;;;;;;;;;;;8.98;100.00;101712.00;5569243;32;34208;-71
2022/11/13 14:24:20;;;;;;;;;;;;;;;8.98;100.00;101725.25;5569302;32;34889;-71
2022/11/13 14:27:44;;;;;;;;;;;;;;;8.92;100.00;101724.87;5568618;32;33368;-71
2022/11/13 14:31:11;;;;;;;;;;;;;;;8.84;100.00;101711.44;5569321;32;34912;-71
2022/11/13 14:34:34;;;;;;;;;;;;;;;8.80;100.00;101716.16;5571629;32;34895;-71
2022/11/13 14:37:58;;;;;;;;;;;;;;;8.65;100.00;101717.38;5571003;32;33287;-71
2022/11/13 14:41:34;;;;;;;;;;;;;;;8.48;100.00;101713.41;5571266;32;34481;-71
2022/11/13 14:45:14;;;;;;;;;;;;;;;8.38;100.00;101714.25;5571559;32;34376;-71
2022/11/13 14:48:37;;;;;;;;;;;;;;;8.32;100.00;101709.47;5571284;32;34892;-71
2022/11/13 14:52:01;;;;;;;;;;;;;;;8.18;100.00;101708.72;5571202;32;34277;-71
2022/11/13 14:55:26;;;;;;;;;;;;;;;8.13;100.00;101715.34;5571231;32;34193;-71
2022/11/13 14:58:49;;;;;;;;;;;;;;;7.95;100.00;101709.66;5571507;32;34324;-71
2022/11/13 15:02:15;;;;;;;;;;;;;;;7.85;100.00;101711.31;5570715;32;34692;-71
2022/11/13 15:05:38;;;;;;;;;;;;;;;7.76;100.00;101702.31;5571483;32;34860;-71
2022/11/13 15:09:02;;;;;;;;;;;;;;;7.67;100.00;101700.38;5570560;32;35456;-71
2022/11/13 15:12:24;;;;;;;;;;;;;;;7.58;100.00;101702.88;5578025;31;34749;-71
2022/11/13 15:15:48;;;;;;;;;;;;;;;7.48;100.00;101708.00;5590576;31;34419;-71
2022/11/13 15:19:16;;;;;;;;;;;;;;;7.36;100.00;101707.13;5590571;31;34593;-71
2022/11/13 15:22:41;;;;;;;;;;;;;;;7.26;100.00;101706.12;5578545;31;34610;-72
2022/11/13 15:26:05;;;;;;;;;;;;;;;7.22;100.00;101693.25;5579405;31;34205;-72
2022/11/13 15:29:27;;;;;;;;;;;;;;;7.18;100.00;101697.09;5579042;31;34857;-70
2022/11/13 15:32:52;;;;;;;;;;;;;;;7.16;100.00;101691.09;5590516;31;34155;-70
2022/11/13 15:36:16;;;;;;;;;;;;;;;7.14;100.00;101690.38;5565530;31;34385;-72
2022/11/13 15:39:39;;;;;;;;;;;;;;;7.09;100.00;101692.50;5579232;31;34232;-70
2022/11/13 15:43:03;;;;;;;;;;;;;;;6.98;100.00;101688.84;5575973;31;35794;-71
2022/11/13 15:46:25;;;;;;;;;;;;;;;6.93;100.00;101692.78;5590569;31;34921;-71
2022/11/13 15:49:49;;;;;;;;;;;;;;;6.87;100.00;101701.16;5590736;31;35093;-71
2022/11/13 15:53:34;;;;;;;;;;;;;;;6.83;100.00;101695.25;5590351;31;34878;-71
2022/11/13 15:56:58;;;;;;;;;;;;;;;6.78;100.00;101702.66;5590280;31;34772;-71
2022/11/13 16:00:25;;;;;;;;;;;;;;;6.79;100.00;101701.69;5576381;31;34627;-71
2022/11/13 16:03:48;;;;;;;;;;;;;;;6.76;100.00;101703.72;5590182;31;34167;-71
2022/11/13 16:07:17;;;;;;;;;;;;;;;6.71;100.00;101701.44;5590018;31;34880;-71
2022/11/13 16:10:43;;;;;;;;;;;;;;;6.69;100.00;101699.84;5589917;31;34981;-71
2022/11/13 16:14:07;;;;;;;;;;;;;;;6.81;100.00;101710.34;5589885;31;34295;-71
2022/11/13 16:17:33;;;;;;;;;;;;;;;6.74;100.00;101708.25;5576310;31;34190;-71
2022/11/13 16:20:57;;;;;;;;;;;;;;;6.66;100.00;101710.63;5590388;31;34304;-73
2022/11/13 16:24:19;;;;;;;;;;;;;;;6.61;100.00;101699.56;5576206;31;35871;-71
2022/11/13 16:27:45;;;;;;;;;;;;;;;6.59;100.00;101696.16;5576173;31;36685;-71
2022/11/13 16:31:07;;;;;;;;;;;;;;;6.51;100.00;101689.66;5590239;31;34895;-71
2022/11/13 16:34:33;;;;;;;;;;;;;;;6.44;100.00;101688.41;5589689;31;34325;-71
2022/11/13 16:37:55;;;;;;;;;;;;;;;6.71;100.00;101692.66;5589978;31;34290;-71
2022/11/13 16:41:17;;;;;;;;;;;;;;;6.58;100.00;101682.19;5589789;31;34280;-71
2022/11/13 16:44:39;;;;;;;;;;;;;;;6.53;100.00;101684.28;5589962;31;34936;-71
2022/11/13 16:48:01;;;;;;;;;;;;;;;6.49;100.00;101686.28;5590220;31;34300;-71
2022/11/13 16:51:26;;;;;;;;;;;;;;;6.37;100.00;101695.09;5589864;31;34670;-71
2022/11/13 16:54:50;;;;;;;;;;;;;;;6.30;100.00;101690.34;5588956;31;34222;-71
2022/11/13 16:58:13;;;;;;;;;;;;;;;6.20;100.00;101687.50;5589787;31;34444;-71
2022/11/13 17:01:37;;;;;;;;;;;;;;;6.23;100.00;101687.31;5589822;31;35070;-73
2022/11/13 17:04:59;;;;;;;;;;;;;;;6.13;100.00;101686.28;5589890;31;34741;-71
2022/11/13 17:08:23;;;;;;;;;;;;;;;6.11;100.00;101694.28;5589465;31;34839;-71
2022/11/13 17:11:46;;;;;;;;;;;;;;;6.04;100.00;101690.41;5589413;31;34352;-72
2022/11/13 17:15:08;;;;;;;;;;;;;;;5.97;100.00;101698.81;5564933;31;35207;-71
2022/11/13 17:18:29;;;;;;;;;;;;;;;5.84;100.00;101684.78;5577737;31;34201;-71
2022/11/13 17:21:51;;;;;;;;;;;;;;;5.80;100.00;101697.31;5589700;31;34357;-71
2022/11/13 17:25:15;;;;;;;;;;;;;;;5.84;100.00;101684.78;5575944;31;34290;-72
2022/11/13 17:28:40;;;;;;;;;;;;;;;5.81;100.00;101692.91;5589741;31;34292;-72
2022/11/13 17:32:04;;;;;;;;;;;;;;;5.75;100.00;101688.03;5589258;31;34583;-72
2022/11/13 17:35:26;;;;;;;;;;;;;;;5.68;100.00;101685.81;5589486;31;34887;-72
2022/11/13 17:38:48;;;;;;;;;;;;;;;5.67;100.00;101681.50;5589538;31;34247;-72
2022/11/13 17:42:12;;;;;;;;;;;;;;;5.75;100.00;101688.03;5589615;31;34992;-72
2022/11/13 17:45:36;;;;;;;;;;;;;;;5.81;100.00;101677.09;5575894;31;34490;-72